Weather Models
Both GFS & NAM
00z 06z 12z 18z
24hr Precip
00z 06z 12z 18z
36hr Simulated radar
00z 06z 12z 18z
SKEWT Soundings
00z 12z
Current Conditions (Updated 3:15am on 8/29/16)
Temperature
 79°
-0.33
80°  
79°  
0
10
20
30
40
50
60
70
80
90
100
Dew Point
68°
68°  
66°  
-20
-10
0
10
20
30
40
50
60
70
80
Heat Index
82°
83°  
82°  
30
40
50
60
70
80
90
100
110
120
130
Heat Index
Humidity
71%
71% 
63% 
0
10
20
30
40
50
60
70
80
90
100
Barometer
30.16
   Steady
30.19  
30.16  
28.00
28.30
28.60
28.90
29.20
29.50
29.80
30.10
30.40
30.70
31.00
Temperature
Dew Point
Humidity
Pressure
Wind
0mph
 SW
Daily Rain
.00
.05
.10
.15
.20
.25
.30
.35
.40
.45
.50
Rain Today
 0.00" 
Month Rain
0.00
0.20
0.40
0.60
0.80
1.00
1.20
1.40
1.60
1.80
2.00
Month Rain
 1.83" 
Year Rain
0.00
5.00
10.00
15.00
20.00
25.00
30.00
35.00
40.00
45.00
50.00
Year Rain
 27.85" 
Sun & Moon Data
Sunrise 6:28am
Sunset 7:38pm
Moonrise 3:35am
Moonset 5:56pm
Moon % 13%
Other Rain Data
Past Hour 0.00 Past 24 Hours 0.00
Past 3 Hours 0.00 Past 7 Days 0.00
Past 6 Hours 0.00
Cloud Height
2546


Current Front Map
Current Satellite map
7 Day Forecast
NWS Forecast for Philadelphia PA
National Weather Service Forecast for: Philadelphia PA
Issued by: National Weather Service Philadelphia, PA
Updated: 12:34 am EDT Aug 29, 2016

Philadelphia
 
Overnight

Overnight: Mostly clear, with a low around 70. Light south wind.
Mostly Clear

Monday

Monday: Mostly sunny, with a high near 91. Calm wind becoming west around 6 mph in the afternoon.
Mostly Sunny

Monday
Night
Monday Night: Isolated showers and thunderstorms before 9pm.  Partly cloudy, with a low around 70. North wind around 7 mph.  Chance of precipitation is 20%.
Isolated
T-storms then
Partly Cloudy
Tuesday

Tuesday: Sunny, with a high near 90. Northeast wind around 6 mph.
Sunny

Tuesday
Night
Tuesday Night: Mostly clear, with a low around 70. Southeast wind around 5 mph becoming calm  in the evening.
Mostly Clear

Wednesday

Wednesday: A slight chance of showers between 9am and 3pm, then a chance of showers and thunderstorms after 3pm.  Mostly sunny, with a high near 90. Chance of precipitation is 30%.
Slight Chance
Showers then
Chance
T-storms
Wednesday
Night
Wednesday Night: A chance of showers and thunderstorms.  Mostly cloudy, with a low around 69. Chance of precipitation is 30%.
Chance
T-storms

Thursday

Thursday: A chance of showers and thunderstorms before 9am.  Mostly sunny, with a high near 86. Chance of precipitation is 30%.
Chance
T-storms then
Mostly Sunny
Thursday
Night
Thursday Night: Partly cloudy, with a low around 63.
Partly Cloudy

Lo 70 °F Hi 91 °F Lo 70 °F Hi 90 °F Lo 70 °F Hi 90 °F Lo 69 °F Hi 86 °F Lo 63 °F

 

Overnight
 
Mostly clear, with a low around 70. Light south wind.
Monday
 
Mostly sunny, with a high near 91. Calm wind becoming west around 6 mph in the afternoon.
Monday Night
 
Isolated showers and thunderstorms before 9pm. Partly cloudy, with a low around 70. North wind around 7 mph. Chance of precipitation is 20%.
Tuesday
 
Sunny, with a high near 90. Northeast wind around 6 mph.
Tuesday Night
 
Mostly clear, with a low around 70. Southeast wind around 5 mph becoming calm in the evening.
Wednesday
 
A slight chance of showers between 9am and 3pm, then a chance of showers and thunderstorms after 3pm. Mostly sunny, with a high near 90. Chance of precipitation is 30%.
Wednesday Night
 
A chance of showers and thunderstorms. Mostly cloudy, with a low around 69. Chance of precipitation is 30%.
Thursday
 
A chance of showers and thunderstorms before 9am. Mostly sunny, with a high near 86. Chance of precipitation is 30%.
Thursday Night
 
Partly cloudy, with a low around 63.
Friday
 
Sunny, with a high near 80.
Friday Night
 
Mostly clear, with a low around 62.
Saturday
 
Sunny, with a high near 81.
Saturday Night
 
Mostly clear, with a low around 64.
Sunday
 
Mostly sunny, with a high near 82.

 

Forecast from NOAA-NWS for Philadelphia PA.

Area Weather Current Conditions
Nearby METAR Reports

KPHL - Philadelphia, Pennsylvania
Updated: Mon, 29-Aug-2016 2:54am EDT
Mostly Cloudy
Mostly Cloudy
 Wind from SW
Wind: SW 7 mph , 11 km/h
Temperature: 75°F , 24°C
Dew Point: 70°F , 21°C
Humidity: 83%
Barometer: 30.16 inHg , 1021.3 hPa
Clouds: Mostly Cloudy
Visibility: 10 miles , 16 km
Cloud details: Mostly Cloudy 25000 ft
2016/08/29 06:54 KPHL 290654Z 23006KT 10SM BKN250 24/21 A3016 RMK AO2 SLP211 T02390206 $
KMPO - Mt. Pocono, Pennsylvania
Updated: Mon, 29-Aug-2016 2:53am EDT
Clear
Clear
 Wind from W
Wind: W 10 mph , 17 km/h
Temperature: 68°F , 20°C
Dew Point: 63°F , 17°C
Humidity: 83%
Barometer: 30.19 inHg , 1022.4 hPa
Clouds: Clear
Visibility: 10 miles , 16 km
2016/08/29 06:53 KMPO 290653Z AUTO 28009KT 10SM CLR 20/17 A3019 RMK AO2 SLP210 T02000167 $
 
KACY - Atlantic City, New Jersey
Updated: Mon, 29-Aug-2016 2:54am EDT
Clear
Clear
 Wind from calm
Wind: Calm
Temperature: 70°F , 21°C
Dew Point: 64°F , 18°C
Humidity: 83%
Barometer: 30.16 inHg , 1021.3 hPa
Clouds: Clear
Visibility: 10 miles , 16 km
2016/08/29 06:54 KACY 290654Z 00000KT 10SM CLR 21/18 A3016 RMK AO2 SLP212 T02060183
KMIV - Millville, New Jersey
Updated: Mon, 29-Aug-2016 2:54am EDT
Clear
Clear
 Wind from calm
Wind: Calm
Temperature: 64°F , 18°C
Dew Point: 64°F , 18°C
Humidity: 100%
Barometer: 30.16 inHg , 1021.3 hPa
Clouds: Clear
Visibility: 10 miles , 16 km
2016/08/29 06:54 KMIV 290654Z AUTO 00000KT 10SM CLR 18/18 A3016 RMK AO2 SLP212 T01830183
 
KWWD - Wildwood, New Jersey
Updated: Mon, 29-Aug-2016 2:56am EDT

 Wind from calm
Wind: Calm
Temperature: 66°F , 19°C
Dew Point: 66°F , 19°C
Humidity: 100%
Barometer: 30.16 inHg , 1021.3 hPa
Visibility: 10 miles , 16 km
2016/08/29 06:56 KWWD 290656Z AUTO 00000KT 10SM 19/19 A3016 RMK AO2 SLP216 T01940189 $
KDOV - Dover Afb, Delaware
Updated: Mon, 29-Aug-2016 2:58am EDT
Clear
Clear
 Wind from calm
Wind: Calm
Temperature: 70°F , 21°C
Dew Point: 70°F , 21°C
Humidity: 100%
Barometer: 30.14 inHg , 1020.7 hPa
Clouds: Clear
Visibility: 10 miles , 16 km
2016/08/29 06:58 KDOV 290658Z AUTO 00000KT 10SM CLR 21/21 A3014 RMK AO2 SLP209 T02070207 $
Severe Weather Map
Recent Forum Post
[Philadelphia] 102.7 last Saturday by JC August 20, 2016, 03:26:22 AM
[Philadelphia] 2015 -2016 Winter snow forecast by JC April 19, 2016, 09:42:40 AM
[Philadelphia] Latest Models on Weekend Storm (Photos) by JC January 23, 2016, 12:01:03 PM
[Philadelphia] Possible large snow storm for end of week ? by JC January 21, 2016, 09:17:47 AM
[Philadelphia] El Nino! by vicente6 September 16, 2015, 01:57:08 AM
[Philadelphia] Early prediction for this winter? by xyonist February 19, 2015, 06:27:46 PM
[Philadelphia] Snow Storm 1/26 by JC January 28, 2015, 10:33:24 AM
[Philadelphia] Next 7 days by JC January 22, 2015, 01:40:35 AM